Архив погоды в Полтавке

Метеограмма Полтавка
Четверг, 4 Июня
Время местн. Темп Ветер Видим Явления Облачность нижн/средн/верх Атм. давл. Влжн Точка росы ВНГО R Сост. почвы Tg s
Напр Скр Прв ур.ст ур.м изм
12:00 +12.5° С 4 - 20 км небо без изменений {ливневые осадки} облачно 751 763 +0.1 51% +2.7° 1 км - - - -
09:00 +10.9° С 4 - 20 км ливневый дождь преимущественно облачно 751 763 -0.4 79% +7.4° 1 км 0.6 Влажная (без луж) +4° -
06:00 +4° З 1 - 20 км - переменная облачность 751 762 -0.2 86% +1.9° более 2.5 км - - - -
03:00 +4.6° З 1 - 10 км - ясно 751 763 -0.3 77% +0.9° более 2.5 км - - - -
00:00 +5.8° штиль 0 - 10 км - ясно 751 763 0 72% +1.2° более 2.5 км - - - -
Среда, 3 Июня
Время местн. Темп Ветер Видим Явления Облачность нижн/средн/верх Атм. давл. Влжн Точка росы ВНГО R Сост. почвы Tg s
Напр Скр Прв ур.ст ур.м изм
21:00 +14.2° С,С-В 2 - 20 км - переменная облачность 751 763 +0.2 39% +0.6° более 2.5 км 0 - - -
18:00 +16° С 4 - 20 км - облачно с прояснениями 751 762 -0.5 37% +1.2° 1 км - - - -
15:00 +16.7° С,С-В 4 - 20 км - облачно 752 763 -0.5 38% +2.3° 1 км - - - -
12:00 +14.8° С,С-В 4 - 20 км - преимущественно облачно 752 763 -1 45% +3.1° 1 км - - - -
09:00 +12.4° С-В 2 - 20 км - преимущественно облачно 753 764 +0.5 60% +4.9° более 2.5 км 0 - - -
06:00 +7.9° С 2 - 20 км - преимущественно облачно 753 764 +0.8 83% +5.2° - - - - -
03:00 +6.6° С 1 - 10 км - ясно 752 763 +0.8 86% +4.4° более 2.5 км - - - -
00:00 +10.1° С,С-З 2 - 10 км - ясно 751 763 +1.1 68% +4.4° более 2.5 км - - - -
Вторник, 2 Июня
Время местн. Темп Ветер Видим Явления Облачность нижн/средн/верх Атм. давл. Влжн Точка росы ВНГО R Сост. почвы Tg s
Напр Скр Прв ур.ст ур.м изм
21:00 +14.4° С 3 - 20 км - переменная облачность 750 761 +1 54% +5.2° 1 км 0 - - -
18:00 +17.4° С 4 10 20 км - переменная облачность 749 760 +0.5 48% +6.2° 1 км - - - -
15:00 +19.6° С-З 5 11 20 км - облачно с прояснениями 749 760 +0.7 47% +7.9° 1 км - - - -
12:00 +18.8° С-З 4 10 20 км небо без изменений {ливневые осадки} переменная облачность 748 759 +0.8 54% +9.3° 1 км - - - -
09:00 +15.5° С,С-З 4 - 20 км небо без изменений {ливневые осадки} переменная облачность 747 758 +1 64% +8.7° 1 км 0.5 - - -
06:00 +11.6° С 2 - 4 км слабый ливневый дождь преимущественно облачно 746 758 +0.8 89% +9.9° 1 км - - - -
03:00 +12.4° С 3 - 10 км - облачно с прояснениями 746 757 +0.5 86% +10.1° более 2.5 км - - - -
00:00 +14.8° С-З 1 10 10 км - переменная облачность 745 756 +1 75% +10.4° более 2.5 км - - - -
Понедельник, 1 Июня
Время местн. Темп Ветер Видим Явления Облачность нижн/средн/верх Атм. давл. Влжн Точка росы ВНГО R Сост. почвы Tg s
Напр Скр Прв ур.ст ур.м изм
21:00 +22° С-З 6 16 20 км - переменная облачность 744 755 +2.7 48% +10.5° более 2.5 км 0 - - -
18:00 +28.2° З,С-З 7 17 20 км - облачно с прояснениями 741 752 +0.7 33% +10.4° 1 км - - - -
15:00 +31.5° З 8 17 20 км - переменная облачность 741 751 -0.9 25% +9.1° 1 км - - - -
12:00 +26° Ю,Ю-В 6 10 20 км - переменная облачность 742 752 -1.5 44% +12.8° 1 км - - - -
09:00 +20.3° Ю,Ю-В 6 - 20 км - облачно 743 754 -1.2 63% +13° 1 км 0 - - -